Time;durP1;ratioP1;P1;durP2;ratioP2;P2;SDS_P1;SDS_P2;PMS_P1;PMS_P2;Temp;Humidity;BMP_temperature;BMP_pressure;BME280_temperature;BME280_humidity;BME280_pressure;Samples;Min_cycle;Max_cycle;Signal;HPM_P1;HPM_P2
2021/08/27 00:02:16;;;;;;;4.00;2.80;;;;;;;14.36;88.50;98473.28;4987995;28;102845;-59
2021/08/27 00:04:45;;;;;;;2.63;2.10;;;;;;;14.48;88.05;98467.66;4990515;28;103281;-59
2021/08/27 00:07:13;;;;;;;3.30;2.40;;;;;;;14.58;87.17;98466.81;4992275;28;103245;-67
2021/08/27 00:09:41;;;;;;;3.10;2.50;;;;;;;14.67;86.79;98466.81;4987795;28;102624;-67
2021/08/27 00:12:09;;;;;;;2.60;2.27;;;;;;;14.70;86.85;98465.69;4993451;28;102671;-66
2021/08/27 00:14:38;;;;;;;3.37;2.33;;;;;;;14.76;86.35;98465.97;4989448;28;104118;-67
2021/08/27 00:17:06;;;;;;;3.13;2.53;;;;;;;14.81;87.11;98466.38;4989980;28;103257;-68
2021/08/27 00:19:35;;;;;;;4.03;3.13;;;;;;;14.75;88.29;98463.44;4987704;28;102716;-67
2021/08/27 00:22:03;;;;;;;3.17;2.63;;;;;;;14.75;87.66;98458.13;4989311;28;103808;-67
2021/08/27 00:24:31;;;;;;;4.20;2.90;;;;;;;14.65;87.50;98463.47;4989232;28;103285;-66
2021/08/27 00:26:59;;;;;;;3.43;2.30;;;;;;;14.69;87.32;98469.34;4992190;28;103215;-66
2021/08/27 00:29:27;;;;;;;3.93;3.07;;;;;;;14.68;87.52;98460.50;4989590;28;103066;-67
2021/08/27 00:31:55;;;;;;;3.10;2.60;;;;;;;14.74;87.15;98472.41;4988567;28;102734;-68
2021/08/27 00:34:23;;;;;;;5.20;3.50;;;;;;;14.68;87.76;98468.50;4990910;28;104110;-70
2021/08/27 00:36:52;;;;;;;3.60;2.50;;;;;;;14.78;87.07;98474.66;4991223;28;103220;-67
2021/08/27 00:39:20;;;;;;;3.07;2.60;;;;;;;14.85;87.25;98472.28;4993864;28;102713;-60
2021/08/27 00:41:48;;;;;;;2.73;2.13;;;;;;;14.86;87.56;98471.28;4993469;28;102652;-66
2021/08/27 00:44:16;;;;;;;3.07;2.27;;;;;;;14.90;87.23;98470.84;4992757;28;104285;-67
2021/08/27 00:46:44;;;;;;;4.17;3.10;;;;;;;14.96;86.95;98472.09;4973205;28;103994;-67
2021/08/27 00:49:12;;;;;;;4.63;2.93;;;;;;;14.98;87.29;98463.00;4994186;28;102633;-66
2021/08/27 00:51:40;;;;;;;2.73;2.53;;;;;;;14.97;87.19;98463.97;4994187;28;103099;-67
2021/08/27 00:54:10;;;;;;;3.60;3.00;;;;;;;15.00;87.17;98457.50;4994847;28;103944;-68
2021/08/27 00:56:38;;;;;;;4.00;2.63;;;;;;;15.02;87.82;98466.19;4994688;28;103075;-67
2021/08/27 00:59:06;;;;;;;3.17;2.87;;;;;;;14.99;88.35;98463.81;4993698;28;103774;-68
2021/08/27 01:01:34;;;;;;;4.20;2.77;;;;;;;15.02;88.28;98468.84;4985084;28;103057;-68
2021/08/27 01:04:03;;;;;;;3.03;2.70;;;;;;;14.94;88.31;98474.88;4992075;28;103357;-66
2021/08/27 01:06:38;;;;;;;3.90;2.80;;;;;;;14.97;88.21;98473.75;4989188;28;103331;-68
2021/08/27 01:09:10;;;;;;;4.47;3.47;;;;;;;15.00;87.29;98470.81;4972382;28;103055;-68
2021/08/27 01:11:44;;;;;;;3.80;2.70;;;;;;;15.03;87.09;98476.69;4990646;28;102652;-68
2021/08/27 01:14:17;;;;;;;4.10;2.77;;;;;;;15.07;87.81;98469.28;4992558;28;104083;-68
2021/08/27 01:16:52;;;;;;;3.70;3.13;;;;;;;15.06;87.49;98471.09;4994739;28;103212;-67
2021/08/27 01:19:42;;;;;;;5.30;4.00;;;;;;;15.00;87.35;98476.13;4994543;28;103058;-67
2021/08/27 01:22:27;;;;;;;3.47;3.17;;;;;;;15.00;87.73;98469.00;4976172;28;103794;-67
2021/08/27 01:24:57;;;;;;;4.53;3.10;;;;;;;14.88;88.43;98478.13;4978231;28;103354;-68
2021/08/27 01:27:27;;;;;;;3.13;2.83;;;;;;;14.79;88.77;98473.66;4993115;28;103764;-67
2021/08/27 01:30:02;;;;;;;4.07;3.40;;;;;;;14.81;89.17;98470.88;4993416;28;102956;-60
2021/08/27 01:32:39;;;;;;;4.93;3.70;;;;;;;14.82;88.94;98480.53;4992585;28;103672;-60
2021/08/27 01:35:11;;;;;;;4.37;2.83;;;;;;;14.75;89.56;98474.09;4992260;28;103090;-60
2021/08/27 01:37:44;;;;;;;3.00;2.70;;;;;;;14.82;89.36;98475.22;4970817;28;103235;-60
2021/08/27 01:40:13;;;;;;;3.67;3.17;;;;;;;14.81;89.21;98473.53;4990344;28;102675;-68
2021/08/27 01:42:41;;;;;;;4.87;3.13;;;;;;;14.69;90.14;98472.00;4992366;28;104020;-66
2021/08/27 01:45:11;;;;;;;5.20;2.77;;;;;;;14.87;89.18;98478.28;4984059;28;103322;-68
2021/08/27 01:47:40;;;;;;;3.97;3.03;;;;;;;14.88;89.69;98469.28;4990692;28;103241;-61
2021/08/27 01:50:11;;;;;;;3.87;2.97;;;;;;;14.91;88.88;98469.00;4991323;28;102789;-61
2021/08/27 01:52:41;;;;;;;3.90;2.70;;;;;;;14.83;89.80;98468.88;4972066;28;102795;-67
2021/08/27 01:55:10;;;;;;;6.33;3.17;;;;;;;14.90;89.44;98472.69;4992777;28;103277;-67
2021/08/27 01:57:39;;;;;;;4.03;3.23;;;;;;;15.00;88.55;98460.19;4992688;28;103200;-67
2021/08/27 02:00:11;;;;;;;4.53;3.27;;;;;;;14.93;88.66;98462.56;4993719;28;102925;-60
2021/08/27 02:02:40;;;;;;;3.27;2.40;;;;;;;15.04;88.46;98466.91;4966001;28;102808;-60
2021/08/27 02:05:11;;;;;;;4.47;3.20;;;;;;;15.00;88.46;98469.00;4991306;28;103100;-60
2021/08/27 02:07:39;;;;;;;5.97;3.67;;;;;;;15.01;88.10;98470.69;4993746;28;103259;-60
2021/08/27 02:10:08;;;;;;;4.03;3.17;;;;;;;15.10;87.87;98466.31;4991972;28;102784;-61
2021/08/27 02:12:36;;;;;;;6.67;4.00;;;;;;;14.99;88.76;98474.44;4991529;28;102724;-61
2021/08/27 02:15:06;;;;;;;4.23;3.00;;;;;;;14.88;89.75;98474.63;4990048;28;103156;-61
2021/08/27 02:17:34;;;;;;;5.80;2.93;;;;;;;15.00;88.96;98474.31;4996657;28;103227;-61
2021/08/27 02:20:02;;;;;;;3.97;2.80;;;;;;;14.98;88.92;98475.44;4994491;28;104362;-61
2021/08/27 02:22:34;;;;;;;6.70;4.43;;;;;;;14.84;89.21;98478.56;4993784;28;102771;-68
2021/08/27 02:25:13;;;;;;;5.40;3.50;;;;;;;14.56;91.29;98474.97;4995132;28;103107;-68
2021/08/27 02:27:43;;;;;;;5.07;3.87;;;;;;;14.57;91.35;98476.63;4975560;28;104140;-61
2021/08/27 02:30:15;;;;;;;5.33;3.53;;;;;;;14.69;90.83;98482.63;4994755;28;102813;-61
2021/08/27 02:32:46;;;;;;;6.00;3.87;;;;;;;14.75;91.27;98480.25;4991398;28;102736;-67
2021/08/27 02:35:16;;;;;;;5.90;3.57;;;;;;;14.84;90.10;98476.75;4977267;28;103338;-62
2021/08/27 02:37:48;;;;;;;6.60;3.63;;;;;;;14.78;90.28;98479.97;4973047;28;102606;-68
2021/08/27 02:40:16;;;;;;;5.73;4.07;;;;;;;14.78;90.39;98479.13;4991616;28;102810;-61
2021/08/27 02:42:44;;;;;;;5.97;3.93;;;;;;;14.77;91.01;98478.28;4992947;28;102749;-69
2021/08/27 02:45:12;;;;;;;3.10;2.70;;;;;;;14.90;89.94;98473.53;4990642;28;103062;-67
2021/08/27 02:47:40;;;;;;;3.20;2.90;;;;;;;14.96;89.74;98472.09;4989464;28;103302;-61
2021/08/27 02:50:09;;;;;;;5.77;3.73;;;;;;;15.00;89.43;98468.16;4973530;28;102881;-61
2021/08/27 02:52:43;;;;;;;4.23;3.23;;;;;;;15.03;89.48;98466.06;4992666;28;102686;-68
2021/08/27 02:55:18;;;;;;;6.43;4.10;;;;;;;14.87;89.90;98478.28;4991252;28;103656;-68
2021/08/27 02:57:53;;;;;;;4.67;3.90;;;;;;;14.80;90.66;98474.50;4991815;28;103206;-69
2021/08/27 03:00:22;;;;;;;6.10;4.23;;;;;;;14.84;90.35;98481.22;4992235;28;102583;-68
2021/08/27 03:02:51;;;;;;;4.60;3.53;;;;;;;14.73;91.47;98470.75;4989089;28;102827;-67
2021/08/27 03:05:22;;;;;;;3.93;3.30;;;;;;;14.70;91.82;98471.03;4992311;28;103316;-60
2021/08/27 03:07:57;;;;;;;5.53;3.73;;;;;;;14.79;91.21;98483.47;4992652;28;103220;-60
2021/08/27 03:10:30;;;;;;;3.67;2.97;;;;;;;14.85;90.96;98480.25;4985546;28;102736;-60
2021/08/27 03:13:04;;;;;;;8.23;3.67;;;;;;;14.83;90.63;98477.72;4979052;28;102676;-67
2021/08/27 03:15:38;;;;;;;5.63;3.50;;;;;;;14.79;91.36;98478.16;4975865;28;104030;-66
2021/08/27 03:18:11;;;;;;;3.30;2.23;;;;;;;14.81;91.44;98477.03;4974056;28;103233;-66
2021/08/27 03:20:43;;;;;;;3.90;2.77;;;;;;;14.91;90.37;98479.66;4977399;28;102987;-67
2021/08/27 03:23:15;;;;;;;11.20;3.90;;;;;;;14.88;91.00;98474.63;4976063;28;102656;-60
2021/08/27 03:25:47;;;;;;;3.73;2.80;;;;;;;14.87;90.76;98462.31;4980859;28;103854;-60
2021/08/27 03:28:20;;;;;;;3.60;3.10;;;;;;;14.89;90.81;98468.31;4977729;28;103357;-61
2021/08/27 03:30:51;;;;;;;5.83;3.43;;;;;;;14.80;91.61;98471.84;4980263;28;102694;-59
2021/08/27 03:33:22;;;;;;;7.00;4.07;;;;;;;14.81;91.89;98468.19;4958393;28;102806;-59
2021/08/27 03:35:51;;;;;;;5.57;3.57;;;;;;;14.81;91.73;98469.03;4975226;28;103347;-67
2021/08/27 03:38:23;;;;;;;6.00;3.90;;;;;;;14.72;92.23;98463.72;4956971;28;103157;-66
2021/08/27 03:40:53;;;;;;;5.70;3.83;;;;;;;14.77;92.11;98467.63;4977274;28;102619;-67
2021/08/27 03:43:22;;;;;;;7.77;4.00;;;;;;;14.75;91.94;98464.28;4961232;28;102672;-59
2021/08/27 03:45:52;;;;;;;7.30;4.80;;;;;;;14.72;92.32;98474.38;4973207;28;104033;-66
2021/08/27 03:48:21;;;;;;;4.13;3.30;;;;;;;14.74;92.58;98469.75;4975874;28;103206;-67
2021/08/27 03:50:50;;;;;;;4.20;3.80;;;;;;;14.80;91.80;98474.50;4975374;28;102744;-60
2021/08/27 03:53:19;;;;;;;4.67;3.87;;;;;;;14.81;92.04;98468.19;4977492;28;103665;-60
2021/08/27 03:55:50;;;;;;;6.87;4.40;;;;;;;14.86;91.69;98473.94;4977818;28;103347;-68
2021/08/27 03:58:22;;;;;;;5.17;3.63;;;;;;;14.69;93.13;98472.84;4976258;28;103033;-67
2021/08/27 04:00:51;;;;;;;4.67;4.13;;;;;;;14.79;92.52;98478.16;4975403;28;102680;-59
2021/08/27 04:03:20;;;;;;;4.80;3.40;;;;;;;14.82;92.65;98475.22;4982841;28;104969;-60
2021/08/27 04:06:03;;;;;;;4.13;3.60;;;;;;;14.77;93.17;98472.13;4988597;28;103281;-67
2021/08/27 04:08:34;;;;;;;7.07;6.37;;;;;;;14.62;93.75;98468.25;4980168;28;103688;-68
2021/08/27 04:11:03;;;;;;;9.00;7.30;;;;;;;14.24;96.26;98483.16;4960419;28;103703;-67
2021/08/27 04:13:33;;;;;;;7.27;5.73;;;;;;;14.46;95.56;98484.72;4977305;28;102709;-68
2021/08/27 04:16:01;;;;;;;7.87;6.23;;;;;;;14.59;94.06;98489.78;4978951;28;103116;-60
2021/08/27 04:18:29;;;;;;;7.50;6.00;;;;;;;14.47;94.29;98481.97;4961927;28;103721;-61
2021/08/27 04:20:57;;;;;;;6.77;5.70;;;;;;;14.50;94.22;98480.84;4978385;28;102641;-61
2021/08/27 04:23:25;;;;;;;6.43;5.13;;;;;;;14.60;93.57;98488.78;4980189;28;103957;-60
2021/08/27 04:25:53;;;;;;;7.80;5.73;;;;;;;14.61;93.45;98480.69;4956504;28;103345;-60
2021/08/27 04:28:21;;;;;;;5.70;5.10;;;;;;;14.65;93.24;98490.06;4980257;28;103206;-60
2021/08/27 04:30:51;;;;;;;7.40;5.90;;;;;;;14.64;93.36;98483.06;4976864;28;102652;-60
2021/08/27 04:33:19;;;;;;;5.60;4.90;;;;;;;14.69;92.76;98490.59;4974090;28;102978;-60
2021/08/27 04:35:47;;;;;;;5.67;4.93;;;;;;;14.70;92.28;98486.97;4979297;28;103708;-59
2021/08/27 04:38:15;;;;;;;6.43;4.20;;;;;;;14.74;92.27;98493.66;4977488;28;102617;-67
2021/08/27 04:40:43;;;;;;;6.27;4.97;;;;;;;14.67;92.53;98493.41;4976914;28;102676;-60
2021/08/27 04:43:11;;;;;;;6.13;3.83;;;;;;;14.71;92.82;98499.31;4977790;28;102626;-68
2021/08/27 04:45:39;;;;;;;6.17;5.40;;;;;;;14.61;92.67;98503.75;4977276;28;103293;-60
2021/08/27 04:48:09;;;;;;;7.37;4.53;;;;;;;14.56;93.41;98506.00;4977562;28;103215;-60
2021/08/27 04:50:37;;;;;;;6.43;5.00;;;;;;;14.57;92.90;98518.34;4975707;28;102566;-59
2021/08/27 04:53:05;;;;;;;9.90;5.33;;;;;;;14.65;92.43;98515.81;4978822;28;102743;-60
2021/08/27 04:55:33;;;;;;;4.60;4.10;;;;;;;14.60;93.06;98512.72;4976567;28;103321;-67
2021/08/27 04:58:01;;;;;;;5.23;4.73;;;;;;;14.54;93.26;98523.94;4978064;28;103195;-68
2021/08/27 05:00:29;;;;;;;7.97;6.30;;;;;;;14.44;93.52;98516.78;4958853;28;103837;-69
2021/08/27 05:02:57;;;;;;;7.80;5.77;;;;;;;14.43;93.71;98523.06;4978903;28;103332;-69
2021/08/27 05:05:27;;;;;;;6.40;5.37;;;;;;;14.46;93.88;98519.28;4979478;28;103328;-69
2021/08/27 05:07:55;;;;;;;6.87;6.17;;;;;;;14.37;94.60;98523.63;4977087;28;103258;-67
2021/08/27 05:10:23;;;;;;;7.53;5.83;;;;;;;14.43;94.36;98522.22;4973284;28;102694;-68
2021/08/27 05:12:51;;;;;;;7.37;6.50;;;;;;;14.45;94.20;98520.28;4972821;28;103995;-67
2021/08/27 05:15:19;;;;;;;5.67;5.13;;;;;;;14.61;93.74;98525.03;4972336;28;103995;-68
2021/08/27 05:17:51;;;;;;;9.50;7.00;;;;;;;14.55;93.67;98526.44;4979100;28;103363;-68
2021/08/27 05:20:19;;;;;;;8.43;7.20;;;;;;;14.54;94.44;98521.28;4976629;28;102640;-68
2021/08/27 05:22:48;;;;;;;8.57;7.50;;;;;;;14.44;94.72;98530.06;4976554;28;102839;-67
2021/08/27 05:25:16;;;;;;;6.50;5.77;;;;;;;14.58;94.38;98533.28;4976041;28;103421;-69
2021/08/27 05:27:44;;;;;;;7.13;6.13;;;;;;;14.62;94.28;98532.88;4975375;28;103205;-68
2021/08/27 05:30:13;;;;;;;7.37;6.50;;;;;;;14.62;94.69;98537.34;4973985;28;102707;-60
2021/08/27 05:32:41;;;;;;;10.23;9.27;;;;;;;14.02;97.39;98543.66;4978794;28;102745;-58
2021/08/27 05:35:10;;;;;;;11.00;7.63;;;;;;;14.15;98.82;98545.09;4978529;28;103392;-60
2021/08/27 05:37:39;;;;;;;9.00;7.70;;;;;;;14.56;96.19;98548.53;4973584;28;102749;-59
2021/08/27 05:40:13;;;;;;;11.07;7.70;;;;;;;14.70;95.15;98550.78;4961806;28;103977;-60
2021/08/27 05:42:42;;;;;;;11.60;9.30;;;;;;;14.56;95.01;98559.19;4980651;28;102650;-59
2021/08/27 05:45:11;;;;;;;8.77;6.70;;;;;;;14.71;95.38;98563.13;4978289;28;103324;-58
2021/08/27 05:47:40;;;;;;;9.70;8.70;;;;;;;14.68;94.23;98566.06;4975022;28;103033;-60
2021/08/27 05:50:09;;;;;;;10.10;8.93;;;;;;;14.61;94.63;98556.94;4961005;28;102685;-58
2021/08/27 05:52:37;;;;;;;10.50;8.17;;;;;;;14.43;96.22;98570.91;4949924;28;102949;-59
2021/08/27 05:55:07;;;;;;;8.80;6.83;;;;;;;14.50;96.28;98571.22;4975745;28;103343;-59
2021/08/27 05:57:36;;;;;;;6.70;6.10;;;;;;;14.57;95.72;98574.16;4976876;28;103199;-59
2021/08/27 06:00:05;;;;;;;7.13;6.53;;;;;;;14.59;94.92;98578.34;4960485;28;103296;-68
2021/08/27 06:02:34;;;;;;;9.83;8.93;;;;;;;14.48;94.68;98574.00;4979885;28;103231;-59
2021/08/27 06:05:02;;;;;;;9.13;8.23;;;;;;;14.59;93.92;98581.03;4979856;28;103323;-59
2021/08/27 06:07:30;;;;;;;10.30;9.13;;;;;;;14.49;93.55;98580.16;4980704;28;103241;-60
2021/08/27 06:09:58;;;;;;;11.67;9.57;;;;;;;14.34;94.90;98574.38;4976581;28;102717;-61
2021/08/27 06:12:26;;;;;;;8.83;8.00;;;;;;;14.28;95.37;98572.28;4978108;28;102760;-60
2021/08/27 06:14:56;;;;;;;8.17;7.27;;;;;;;14.27;95.48;98583.88;4991398;28;103243;-60
2021/08/27 06:17:24;;;;;;;8.83;7.93;;;;;;;14.50;93.93;98581.84;4995476;28;103074;-60
2021/08/27 06:19:52;;;;;;;9.33;7.90;;;;;;;14.41;94.63;98586.16;4991195;28;102644;-60
2021/08/27 06:22:20;;;;;;;8.73;7.50;;;;;;;14.54;93.83;98587.72;4994184;28;104141;-60
2021/08/27 06:24:48;;;;;;;8.93;7.00;;;;;;;14.81;92.36;98591.38;4991539;28;104420;-60
2021/08/27 06:27:16;;;;;;;8.20;7.40;;;;;;;14.97;90.72;98586.34;4992040;28;103225;-61
2021/08/27 06:29:44;;;;;;;6.73;6.10;;;;;;;15.17;89.99;98584.50;4990060;28;103042;-68
2021/08/27 06:32:14;;;;;;;8.07;7.37;;;;;;;15.04;90.15;98578.63;4991582;28;102902;-70
2021/08/27 06:34:42;;;;;;;7.87;7.00;;;;;;;15.00;90.17;98580.72;4972203;28;103369;-68
2021/08/27 06:37:10;;;;;;;7.43;6.60;;;;;;;15.19;88.95;98585.19;4992671;28;103775;-59
2021/08/27 06:39:39;;;;;;;6.03;5.07;;;;;;;15.24;88.83;98582.94;4979509;28;102616;-60
2021/08/27 06:42:08;;;;;;;5.83;4.67;;;;;;;15.18;88.18;98582.69;4990881;28;104415;-60
2021/08/27 06:44:36;;;;;;;8.63;6.70;;;;;;;15.19;88.13;98584.34;4986827;28;103964;-60
2021/08/27 06:47:04;;;;;;;5.67;4.80;;;;;;;15.26;88.04;98588.97;4988992;28;103195;-59
2021/08/27 06:49:33;;;;;;;6.17;4.97;;;;;;;15.55;86.02;98591.59;4988944;28;102679;-59
2021/08/27 06:52:01;;;;;;;5.37;4.27;;;;;;;15.80;84.93;98590.13;4992620;28;102703;-67
2021/08/27 06:54:30;;;;;;;7.93;5.63;;;;;;;15.43;86.76;98598.88;4987389;28;103295;-60
2021/08/27 06:56:58;;;;;;;4.13;3.73;;;;;;;15.53;86.21;98599.72;4994422;28;103207;-66
2021/08/27 06:59:26;;;;;;;6.37;5.10;;;;;;;15.49;84.84;98594.84;4985742;28;102723;-66
2021/08/27 07:01:54;;;;;;;9.50;5.07;;;;;;;15.30;85.24;98608.97;4993589;28;103537;-67
2021/08/27 07:04:24;;;;;;;6.60;5.17;;;;;;;15.35;85.59;98609.41;4995167;28;103342;-66
2021/08/27 07:06:53;;;;;;;4.47;3.77;;;;;;;15.53;84.82;98607.72;4993361;28;103199;-65
2021/08/27 07:09:21;;;;;;;7.87;5.10;;;;;;;15.57;84.39;98598.47;4977298;28;103135;-67
2021/08/27 07:11:49;;;;;;;7.40;5.40;;;;;;;15.10;87.02;98599.34;4994941;28;103101;-67
2021/08/27 07:14:18;;;;;;;5.40;4.90;;;;;;;15.24;87.54;98598.88;4970784;28;104122;-67
2021/08/27 07:16:46;;;;;;;5.80;4.43;;;;;;;15.47;86.01;98600.28;4969460;28;104306;-66
2021/08/27 07:19:14;;;;;;;5.23;4.70;;;;;;;15.19;87.10;98593.16;4994814;28;102640;-59
2021/08/27 07:21:42;;;;;;;4.70;4.23;;;;;;;15.58;85.72;98599.28;4996874;28;102637;-60
2021/08/27 07:24:11;;;;;;;7.33;4.33;;;;;;;16.15;82.84;98608.88;4990665;28;103259;-58
2021/08/27 07:26:39;;;;;;;3.53;3.20;;;;;;;16.53;81.64;98610.50;4995419;28;103213;-58
2021/08/27 07:29:07;;;;;;;5.23;3.67;;;;;;;16.34;81.13;98599.94;4993689;28;102670;-58
2021/08/27 07:31:35;;;;;;;4.73;3.23;;;;;;;16.34;80.07;98608.75;4991755;28;103306;-58
2021/08/27 07:34:03;;;;;;;5.57;2.87;;;;;;;16.37;79.66;98616.47;4992382;28;103229;-58
2021/08/27 07:36:31;;;;;;;3.50;3.20;;;;;;;16.21;79.69;98610.94;4992333;28;103343;-59
2021/08/27 07:38:59;;;;;;;5.03;3.20;;;;;;;16.36;79.36;98606.81;4992841;28;102815;-59
2021/08/27 07:41:31;;;;;;;5.50;3.30;;;;;;;16.38;77.67;98612.81;4973442;28;104005;-67
2021/08/27 07:43:59;;;;;;;5.30;2.37;;;;;;;17.01;74.37;98607.50;4991578;28;103269;-68
2021/08/27 07:46:27;;;;;;;3.50;2.10;;;;;;;16.87;74.20;98610.72;4992657;28;103026;-67
2021/08/27 07:48:55;;;;;;;2.73;1.77;;;;;;;17.35;73.23;98614.63;4976615;28;103090;-68
2021/08/27 07:51:23;;;;;;;4.40;2.70;;;;;;;17.01;74.23;98613.66;4999316;28;104200;-68
2021/08/27 07:53:51;;;;;;;3.97;2.10;;;;;;;18.16;73.10;98611.66;4995871;28;103265;-68
2021/08/27 07:56:19;;;;;;;2.58;2.10;;;;;;;18.48;69.80;98614.47;4995709;28;103342;-68
2021/08/27 07:58:49;;;;;;;4.13;2.00;;;;;;;18.77;68.12;98619.41;4995377;28;102889;-68
2021/08/27 08:01:17;;;;;;;4.32;2.00;;;;;;;17.86;67.99;98613.81;4977221;28;102865;-68
2021/08/27 08:03:45;;;;;;;2.92;2.17;;;;;;;17.37;71.06;98622.50;4994908;28;103723;-68
2021/08/27 08:06:13;;;;;;;3.22;2.47;;;;;;;17.74;70.11;98617.75;4995161;28;103355;-68
2021/08/27 08:08:41;;;;;;;5.60;2.47;;;;;;;18.09;67.34;98618.63;4995623;28;102652;-68
2021/08/27 08:11:10;;;;;;;2.67;2.40;;;;;;;16.91;72.16;98625.41;4996261;28;104295;-69
2021/08/27 08:13:38;;;;;;;4.15;2.22;;;;;;;18.27;69.22;98617.53;4976257;28;103217;-70
2021/08/27 08:16:07;;;;;;;3.85;2.22;;;;;;;18.09;67.10;98624.81;4996460;28;103235;-69
2021/08/27 08:18:36;;;;;;;4.97;2.10;;;;;;;17.40;69.10;98624.84;4994950;28;102741;-69
2021/08/27 08:21:04;;;;;;;2.95;1.85;;;;;;;17.67;69.85;98622.06;4998797;28;103839;-69
2021/08/27 08:23:32;;;;;;;2.53;1.75;;;;;;;18.53;67.49;98612.13;4997041;28;103254;-69
2021/08/27 08:26:01;;;;;;;6.13;2.45;;;;;;;18.93;65.66;98619.41;4997552;28;103185;-60
2021/08/27 08:28:29;;;;;;;4.15;1.60;;;;;;;18.02;68.19;98617.59;4996351;28;103271;-59
2021/08/27 08:30:57;;;;;;;4.68;1.50;;;;;;;18.20;68.36;98629.88;4990682;28;104078;-59
2021/08/27 08:33:27;;;;;;;4.97;1.75;;;;;;;20.07;63.47;98621.03;4971408;28;104221;-59
2021/08/27 08:35:55;;;;;;;3.40;1.70;;;;;;;20.20;62.05;98622.16;4993143;28;103214;-59
2021/08/27 08:38:24;;;;;;;2.00;1.30;;;;;;;19.46;64.89;98621.63;4991691;28;102659;-60
2021/08/27 08:40:52;;;;;;;4.50;1.88;;;;;;;20.50;60.38;98622.38;4994723;28;102952;-59
2021/08/27 08:43:21;;;;;;;3.30;1.40;;;;;;;19.03;62.10;98630.81;4989806;28;103411;-60
2021/08/27 08:45:50;;;;;;;3.95;1.63;;;;;;;18.56;63.73;98643.06;4992756;28;103376;-60
2021/08/27 08:48:20;;;;;;;3.08;1.33;;;;;;;19.37;62.27;98630.69;4985589;28;102792;-69
2021/08/27 08:50:50;;;;;;;2.90;1.70;;;;;;;19.72;60.12;98624.97;4994294;28;102768;-69
2021/08/27 08:53:22;;;;;;;2.47;1.65;;;;;;;18.89;65.49;98634.16;4978102;28;104122;-69
2021/08/27 08:55:51;;;;;;;3.67;1.83;;;;;;;18.35;65.82;98635.47;4976618;28;104125;-70
2021/08/27 08:58:20;;;;;;;5.00;1.30;;;;;;;18.16;66.84;98641.06;4977264;28;102705;-69
2021/08/27 09:00:48;;;;;;;3.42;1.67;;;;;;;17.36;69.05;98647.50;4984652;28;103982;-68
2021/08/27 09:03:16;;;;;;;5.15;1.50;;;;;;;17.63;66.36;98639.38;4996429;28;103353;-68
2021/08/27 09:05:45;;;;;;;3.03;1.40;;;;;;;19.35;62.89;98629.97;4995900;28;103969;-69
2021/08/27 09:08:17;;;;;;;3.28;1.60;;;;;;;20.44;59.09;98639.19;4976687;28;102743;-60
2021/08/27 09:10:45;;;;;;;3.20;1.42;;;;;;;19.08;61.18;98640.03;4993206;28;102783;-60
2021/08/27 09:13:13;;;;;;;3.03;1.45;;;;;;;19.47;60.95;98647.44;4997226;28;103214;-59
2021/08/27 09:15:42;;;;;;;4.60;1.40;;;;;;;18.62;64.07;98647.78;4995208;28;103181;-60
2021/08/27 09:18:11;;;;;;;3.05;1.50;;;;;;;19.42;61.99;98642.59;4993215;28;102641;-60
2021/08/27 09:20:39;;;;;;;2.47;1.35;;;;;;;19.80;60.77;98641.03;4987313;28;104124;-60
2021/08/27 09:23:07;;;;;;;3.53;1.33;;;;;;;19.39;60.95;98642.09;4992640;28;103305;-60
2021/08/27 09:25:41;;;;;;;1.98;1.00;;;;;;;20.03;59.10;98647.34;4995722;28;103375;-58
2021/08/27 09:28:12;;;;;;;2.25;1.08;;;;;;;21.65;56.07;98635.69;4991910;28;102658;-60
2021/08/27 09:30:53;;;;;;;3.42;1.85;;;;;;;20.66;56.64;98633.06;4988447;28;103323;-60
2021/08/27 09:33:23;;;;;;;2.75;1.30;;;;;;;20.45;59.45;98643.53;4993854;28;103319;-59
2021/08/27 09:35:59;;;;;;;2.25;1.20;;;;;;;19.60;61.42;98639.72;4991499;28;103050;-61
2021/08/27 09:38:29;;;;;;;7.40;1.60;;;;;;;18.93;61.34;98652.38;4987649;28;102747;-60
2021/08/27 09:41:04;;;;;;;2.95;1.38;;;;;;;19.31;61.45;98644.72;4993893;28;103858;-60
2021/08/27 09:43:42;;;;;;;3.22;1.25;;;;;;;19.98;60.37;98655.09;4994428;28;103275;-60
2021/08/27 09:46:29;;;;;;;4.13;1.70;;;;;;;20.84;57.46;98647.03;4993666;28;103268;-60
2021/08/27 09:48:59;;;;;;;3.08;1.63;;;;;;;20.74;58.84;98641.06;4990447;28;102724;-60
2021/08/27 09:51:43;;;;;;;2.05;1.52;;;;;;;20.78;55.44;98642.38;4993474;28;102756;-59
2021/08/27 09:54:22;;;;;;;4.05;1.73;;;;;;;21.80;53.80;98633.88;4993192;28;104201;-60
2021/08/27 09:56:54;;;;;;;2.92;1.50;;;;;;;20.25;55.92;98637.75;4992206;28;103241;-59
2021/08/27 09:59:33;;;;;;;3.55;1.48;;;;;;;19.66;56.06;98631.00;4975487;28;102846;-59
2021/08/27 10:02:02;;;;;;;2.33;1.33;;;;;;;19.53;57.49;98638.72;4995271;28;104007;-59
2021/08/27 10:04:32;;;;;;;2.95;1.60;;;;;;;19.23;57.01;98647.41;4993123;28;103368;-60
2021/08/27 10:07:00;;;;;;;2.85;1.30;;;;;;;19.92;56.40;98637.00;4991798;28;103207;-60
2021/08/27 10:09:45;;;;;;;5.15;1.70;;;;;;;19.87;54.91;98642.03;4990984;28;102693;-60
2021/08/27 10:12:15;;;;;;;4.25;1.77;;;;;;;21.32;53.26;98636.00;4992814;28;102619;-59
2021/08/27 10:14:43;;;;;;;3.83;1.75;;;;;;;21.05;54.42;98635.66;4992804;28;103273;-59
2021/08/27 10:17:12;;;;;;;3.28;1.40;;;;;;;21.47;55.17;98632.53;4991332;28;103173;-69
2021/08/27 10:19:40;;;;;;;4.40;1.60;;;;;;;21.37;54.61;98628.22;4972600;28;102732;-70
2021/08/27 10:22:08;;;;;;;2.38;1.50;;;;;;;20.72;54.03;98637.69;4963180;28;102740;-70
2021/08/27 10:24:37;;;;;;;2.85;1.55;;;;;;;21.43;53.57;98629.34;4991093;28;103540;-70
2021/08/27 10:27:08;;;;;;;2.38;1.40;;;;;;;21.23;53.13;98631.69;4972757;28;104224;-69
2021/08/27 10:29:48;;;;;;;3.20;1.65;;;;;;;22.59;51.17;98618.88;4993661;28;102680;-60
2021/08/27 10:32:49;;;;;;;2.83;1.40;;;;;;;21.78;51.14;98614.41;4991893;28;103998;-69
2021/08/27 10:35:47;;;;;;;4.78;1.70;;;;;;;19.78;56.83;98632.34;4984059;28;103306;-69
2021/08/27 10:38:40;;;;;;;4.10;1.88;;;;;;;19.15;59.54;98642.84;4979945;28;103225;-59
2021/08/27 10:41:13;;;;;;;4.57;1.85;;;;;;;18.95;60.31;98636.13;4986945;28;102972;-59
2021/08/27 10:43:59;;;;;;;3.75;1.77;;;;;;;19.44;59.06;98629.00;4990110;28;104022;-59
2021/08/27 10:47:00;;;;;;;4.35;1.95;;;;;;;19.53;57.08;98633.38;4992301;28;103304;-60
2021/08/27 10:50:00;;;;;;;2.15;1.52;;;;;;;18.74;59.77;98635.78;4992049;28;103853;-69
2021/08/27 10:52:34;;;;;;;5.47;2.40;;;;;;;18.72;59.94;98638.63;4990372;28;102634;-69
2021/08/27 10:55:15;;;;;;;5.28;2.65;;;;;;;18.17;63.43;98638.22;4990983;28;102754;-70
2021/08/27 10:57:49;;;;;;;3.70;2.28;;;;;;;18.07;65.56;98628.63;4990337;28;103402;-59
2021/08/27 11:00:38;;;;;;;4.80;2.35;;;;;;;18.06;65.08;98629.63;4991547;28;103201;-59
2021/08/27 11:03:08;;;;;;;6.15;2.45;;;;;;;18.02;66.47;98633.63;4991734;28;102702;-59
2021/08/27 11:05:44;;;;;;;6.38;2.58;;;;;;;17.70;66.73;98636.94;4992211;28;102773;-59
2021/08/27 11:08:14;;;;;;;3.95;2.35;;;;;;;18.21;66.62;98638.75;4970660;28;103276;-70
2021/08/27 11:11:21;;;;;;;8.32;2.72;;;;;;;17.63;66.10;98638.53;4990609;28;103212;-70
2021/08/27 11:13:50;;;;;;;7.78;2.65;;;;;;;18.01;64.51;98638.13;4981502;28;102738;-70
2021/08/27 11:16:25;;;;;;;5.75;2.10;;;;;;;18.28;63.69;98637.09;4994154;28;103015;-69
2021/08/27 11:18:54;;;;;;;2.47;2.00;;;;;;;18.72;61.05;98637.78;4994283;28;103372;-69
2021/08/27 11:21:34;;;;;;;2.83;1.92;;;;;;;18.50;61.39;98639.19;4960792;28;103213;-69
2021/08/27 11:24:14;;;;;;;3.65;2.20;;;;;;;17.76;63.57;98637.16;4976432;28;102668;-69
2021/08/27 11:26:45;;;;;;;4.78;2.53;;;;;;;18.65;61.75;98636.75;4989216;28;103049;-69
2021/08/27 11:29:33;;;;;;;3.08;2.10;;;;;;;18.30;60.31;98638.59;4989553;28;103364;-70
2021/08/27 11:32:12;;;;;;;5.78;2.03;;;;;;;19.99;56.85;98629.94;4969625;28;103070;-70
2021/08/27 11:34:51;;;;;;;3.35;1.48;;;;;;;20.62;58.56;98623.69;4984403;28;103030;-70
2021/08/27 11:37:22;;;;;;;3.75;2.30;;;;;;;19.82;58.96;98625.59;4982493;28;103304;-69
2021/08/27 11:39:51;;;;;;;4.32;2.15;;;;;;;19.59;59.33;98619.31;4953877;28;103293;-70
2021/08/27 11:42:21;;;;;;;3.72;1.70;;;;;;;19.42;58.39;98629.19;4979305;28;103154;-70